sensor_id;sensor_type;location;lat;lon;timestamp;pressure;altitude;pressure_sealevel;temperature;humidity
28626;BME280;18905;42.668;23.364;2022-07-29T00:00:07;95187.31;;;22.05;100.00
28626;BME280;18905;42.668;23.364;2022-07-29T00:02:33;95209.91;;;22.73;100.00
28626;BME280;18905;42.668;23.364;2022-07-29T00:04:59;95224.91;;;23.21;100.00
28626;BME280;18905;42.668;23.364;2022-07-29T00:07:24;95142.25;;;22.97;100.00
28626;BME280;18905;42.668;23.364;2022-07-29T00:09:50;95225.19;;;23.90;100.00
28626;BME280;18905;42.668;23.364;2022-07-29T00:12:15;95248.47;;;23.92;100.00
28626;BME280;18905;42.668;23.364;2022-07-29T00:14:40;95195.34;;;23.53;100.00
28626;BME280;18905;42.668;23.364;2022-07-29T00:17:06;95212.69;;;23.33;100.00
28626;BME280;18905;42.668;23.364;2022-07-29T00:19:31;95133.97;;;22.48;100.00
28626;BME280;18905;42.668;23.364;2022-07-29T00:21:57;95227.25;;;23.47;100.00
28626;BME280;18905;42.668;23.364;2022-07-29T00:24:22;95218.63;;;23.24;100.00
28626;BME280;18905;42.668;23.364;2022-07-29T00:26:47;95145.38;;;23.16;100.00
28626;BME280;18905;42.668;23.364;2022-07-29T00:29:13;95226.44;;;23.47;100.00
28626;BME280;18905;42.668;23.364;2022-07-29T00:31:38;95230.38;;;23.49;100.00
28626;BME280;18905;42.668;23.364;2022-07-29T00:34:03;95226.84;;;23.49;100.00
28626;BME280;18905;42.668;23.364;2022-07-29T00:36:29;95191.03;;;23.31;100.00
28626;BME280;18905;42.668;23.364;2022-07-29T00:38:54;95217.81;;;23.38;100.00
28626;BME280;18905;42.668;23.364;2022-07-29T00:41:20;95225.25;;;22.88;100.00
28626;BME280;18905;42.668;23.364;2022-07-29T00:43:45;95181.97;;;22.75;100.00
28626;BME280;18905;42.668;23.364;2022-07-29T00:46:12;95202.41;;;22.60;100.00
28626;BME280;18905;42.668;23.364;2022-07-29T00:48:37;95235.88;;;23.11;100.00
28626;BME280;18905;42.668;23.364;2022-07-29T00:51:04;95228.00;;;22.95;100.00
28626;BME280;18905;42.668;23.364;2022-07-29T00:53:31;95250.50;;;23.36;100.00
28626;BME280;18905;42.668;23.364;2022-07-29T00:55:57;95232.75;;;23.30;100.00
28626;BME280;18905;42.668;23.364;2022-07-29T00:58:24;95160.75;;;22.89;100.00
28626;BME280;18905;42.668;23.364;2022-07-29T01:00:50;95237.41;;;23.75;100.00
28626;BME280;18905;42.668;23.364;2022-07-29T01:03:15;95143.81;;;23.33;100.00
28626;BME280;18905;42.668;23.364;2022-07-29T01:05:43;95249.19;;;24.07;100.00
28626;BME280;18905;42.668;23.364;2022-07-29T01:08:11;95242.94;;;23.82;100.00
28626;BME280;18905;42.668;23.364;2022-07-29T01:10:37;95225.66;;;23.32;100.00
28626;BME280;18905;42.668;23.364;2022-07-29T01:13:04;95162.72;;;22.99;100.00
28626;BME280;18905;42.668;23.364;2022-07-29T01:15:30;95239.75;;;23.94;100.00
28626;BME280;18905;42.668;23.364;2022-07-29T01:18:11;95236.31;;;23.37;100.00
28626;BME280;18905;42.668;23.364;2022-07-29T01:26:42;95237.06;;;23.06;100.00
28626;BME280;18905;42.668;23.364;2022-07-29T01:31:54;95235.09;;;23.14;100.00
28626;BME280;18905;42.668;23.364;2022-07-29T01:39:54;95187.06;;;22.66;100.00
28626;BME280;18905;42.668;23.364;2022-07-29T01:42:39;95229.97;;;22.88;100.00
28626;BME280;18905;42.668;23.364;2022-07-29T01:47:51;95223.69;;;22.87;100.00
28626;BME280;18905;42.668;23.364;2022-07-29T01:50:20;95203.22;;;23.06;100.00
28626;BME280;18905;42.668;23.364;2022-07-29T01:52:56;95224.88;;;22.97;100.00
28626;BME280;18905;42.668;23.364;2022-07-29T01:55:25;95134.03;;;22.65;100.00
28626;BME280;18905;42.668;23.364;2022-07-29T01:57:53;95178.06;;;22.83;100.00
28626;BME280;18905;42.668;23.364;2022-07-29T02:00:21;95200.88;;;22.97;100.00
28626;BME280;18905;42.668;23.364;2022-07-29T02:02:48;95158.00;;;23.10;100.00
28626;BME280;18905;42.668;23.364;2022-07-29T02:05:17;95179.19;;;23.62;100.00
28626;BME280;18905;42.668;23.364;2022-07-29T02:07:46;95128.13;;;22.81;100.00
28626;BME280;18905;42.668;23.364;2022-07-29T02:10:13;95145.41;;;22.71;100.00
28626;BME280;18905;42.668;23.364;2022-07-29T02:12:40;95188.66;;;23.16;100.00
28626;BME280;18905;42.668;23.364;2022-07-29T02:15:07;95126.91;;;23.03;100.00
28626;BME280;18905;42.668;23.364;2022-07-29T02:17:44;95194.91;;;23.69;100.00
28626;BME280;18905;42.668;23.364;2022-07-29T02:20:11;95189.44;;;23.55;100.00
28626;BME280;18905;42.668;23.364;2022-07-29T02:22:38;95147.75;;;23.32;100.00
28626;BME280;18905;42.668;23.364;2022-07-29T02:25:06;95187.84;;;23.68;100.00
28626;BME280;18905;42.668;23.364;2022-07-29T02:27:34;95200.38;;;23.83;100.00
28626;BME280;18905;42.668;23.364;2022-07-29T02:30:01;95121.03;;;22.76;100.00
28626;BME280;18905;42.668;23.364;2022-07-29T02:32:28;95206.00;;;23.02;100.00
28626;BME280;18905;42.668;23.364;2022-07-29T02:34:55;95212.69;;;23.26;95.24
28626;BME280;18905;42.668;23.364;2022-07-29T02:37:21;95200.47;;;23.55;88.38
28626;BME280;18905;42.668;23.364;2022-07-29T02:39:48;95199.56;;;23.89;94.99
28626;BME280;18905;42.668;23.364;2022-07-29T02:42:16;95187.75;;;23.89;97.93
28626;BME280;18905;42.668;23.364;2022-07-29T02:44:42;95159.06;;;23.69;99.48
28626;BME280;18905;42.668;23.364;2022-07-29T02:49:38;95182.13;;;24.17;100.00
28626;BME280;18905;42.668;23.364;2022-07-29T02:54:45;95175.19;;;23.77;100.00
28626;BME280;18905;42.668;23.364;2022-07-29T02:57:19;95163.91;;;23.23;100.00
28626;BME280;18905;42.668;23.364;2022-07-29T02:59:48;95187.00;;;23.78;100.00
28626;BME280;18905;42.668;23.364;2022-07-29T03:02:16;95184.69;;;23.69;100.00
28626;BME280;18905;42.668;23.364;2022-07-29T03:04:43;95173.28;;;23.57;100.00
28626;BME280;18905;42.668;23.364;2022-07-29T03:07:10;95188.19;;;23.80;100.00
28626;BME280;18905;42.668;23.364;2022-07-29T03:09:38;95170.84;;;23.76;100.00
28626;BME280;18905;42.668;23.364;2022-07-29T03:12:06;95161.16;;;23.33;100.00
28626;BME280;18905;42.668;23.364;2022-07-29T03:14:33;95170.59;;;23.01;100.00
28626;BME280;18905;42.668;23.364;2022-07-29T03:16:59;95166.25;;;23.14;100.00
28626;BME280;18905;42.668;23.364;2022-07-29T03:19:26;95170.19;;;23.37;100.00
28626;BME280;18905;42.668;23.364;2022-07-29T03:21:52;95181.16;;;23.48;100.00
28626;BME280;18905;42.668;23.364;2022-07-29T03:24:28;95178.44;;;23.06;100.00
28626;BME280;18905;42.668;23.364;2022-07-29T03:26:55;95161.13;;;22.46;100.00
28626;BME280;18905;42.668;23.364;2022-07-29T03:29:21;95183.53;;;22.58;100.00
28626;BME280;18905;42.668;23.364;2022-07-29T03:31:47;95177.56;;;22.28;100.00
28626;BME280;18905;42.668;23.364;2022-07-29T03:34:12;95165.59;;;21.79;100.00
28626;BME280;18905;42.668;23.364;2022-07-29T03:36:38;95144.84;;;21.13;100.00
28626;BME280;18905;42.668;23.364;2022-07-29T03:39:03;95130.44;;;20.79;100.00
28626;BME280;18905;42.668;23.364;2022-07-29T03:41:29;95169.00;;;20.50;100.00
28626;BME280;18905;42.668;23.364;2022-07-29T03:43:56;95136.53;;;20.15;100.00
28626;BME280;18905;42.668;23.364;2022-07-29T03:46:23;95131.88;;;19.86;100.00
28626;BME280;18905;42.668;23.364;2022-07-29T03:48:55;95207.81;;;20.55;100.00
28626;BME280;18905;42.668;23.364;2022-07-29T03:51:22;95195.00;;;20.66;100.00
28626;BME280;18905;42.668;23.364;2022-07-29T03:53:48;95211.97;;;20.79;100.00
28626;BME280;18905;42.668;23.364;2022-07-29T03:56:15;95203.25;;;20.66;100.00
28626;BME280;18905;42.668;23.364;2022-07-29T03:58:42;95217.44;;;20.75;100.00
28626;BME280;18905;42.668;23.364;2022-07-29T04:01:09;95190.28;;;20.67;100.00
28626;BME280;18905;42.668;23.364;2022-07-29T04:03:35;95191.94;;;20.75;100.00
28626;BME280;18905;42.668;23.364;2022-07-29T04:06:03;95218.44;;;20.97;100.00
28626;BME280;18905;42.668;23.364;2022-07-29T04:08:31;95118.34;;;20.40;100.00
28626;BME280;18905;42.668;23.364;2022-07-29T04:10:56;95220.56;;;21.18;100.00
28626;BME280;18905;42.668;23.364;2022-07-29T04:13:22;95049.28;;;20.24;100.00
28626;BME280;18905;42.668;23.364;2022-07-29T04:15:47;95212.03;;;21.33;100.00
28626;BME280;18905;42.668;23.364;2022-07-29T04:18:12;95161.97;;;21.00;100.00
28626;BME280;18905;42.668;23.364;2022-07-29T04:20:38;95212.88;;;21.44;100.00
28626;BME280;18905;42.668;23.364;2022-07-29T04:23:03;95151.81;;;21.04;100.00
28626;BME280;18905;42.668;23.364;2022-07-29T04:25:29;95186.56;;;21.36;100.00
28626;BME280;18905;42.668;23.364;2022-07-29T04:27:54;95191.41;;;21.60;100.00
28626;BME280;18905;42.668;23.364;2022-07-29T04:30:26;95208.16;;;22.13;100.00
28626;BME280;18905;42.668;23.364;2022-07-29T04:32:52;95191.00;;;22.51;100.00
28626;BME280;18905;42.668;23.364;2022-07-29T04:35:18;95076.94;;;22.24;100.00
28626;BME280;18905;42.668;23.364;2022-07-29T04:37:44;95079.75;;;22.52;100.00
28626;BME280;18905;42.668;23.364;2022-07-29T04:40:09;95158.38;;;23.30;100.00
28626;BME280;18905;42.668;23.364;2022-07-29T04:42:35;95193.41;;;23.43;100.00
28626;BME280;18905;42.668;23.364;2022-07-29T04:45:00;95198.44;;;23.66;100.00
28626;BME280;18905;42.668;23.364;2022-07-29T04:47:25;95166.94;;;23.67;100.00
28626;BME280;18905;42.668;23.364;2022-07-29T04:49:51;95190.53;;;23.96;100.00
28626;BME280;18905;42.668;23.364;2022-07-29T04:52:16;95195.66;;;23.83;100.00
28626;BME280;18905;42.668;23.364;2022-07-29T04:54:42;95210.91;;;24.23;100.00
28626;BME280;18905;42.668;23.364;2022-07-29T04:57:07;95175.13;;;24.02;100.00
28626;BME280;18905;42.668;23.364;2022-07-29T04:59:32;95184.69;;;24.59;100.00
28626;BME280;18905;42.668;23.364;2022-07-29T05:01:58;95220.03;;;25.39;97.09
28626;BME280;18905;42.668;23.364;2022-07-29T05:04:23;95219.75;;;25.67;92.83
28626;BME280;18905;42.668;23.364;2022-07-29T05:06:48;95152.28;;;25.17;91.77
28626;BME280;18905;42.668;23.364;2022-07-29T05:09:14;95214.94;;;25.75;89.05
28626;BME280;18905;42.668;23.364;2022-07-29T05:11:39;95187.78;;;25.22;89.29
28626;BME280;18905;42.668;23.364;2022-07-29T05:14:05;95216.91;;;25.34;91.23
28626;BME280;18905;42.668;23.364;2022-07-29T05:16:30;95214.97;;;25.71;90.08
28626;BME280;18905;42.668;23.364;2022-07-29T05:18:55;95223.06;;;26.26;87.65
28626;BME280;18905;42.668;23.364;2022-07-29T05:21:21;95181.84;;;26.35;85.01
28626;BME280;18905;42.668;23.364;2022-07-29T05:23:46;95235.09;;;26.76;83.13
28626;BME280;18905;42.668;23.364;2022-07-29T05:26:12;95209.00;;;27.00;78.59
28626;BME280;18905;42.668;23.364;2022-07-29T05:28:37;95153.81;;;26.86;76.13
28626;BME280;18905;42.668;23.364;2022-07-29T05:31:03;95207.63;;;25.95;85.17
28626;BME280;18905;42.668;23.364;2022-07-29T05:33:28;95197.06;;;26.20;83.01
28626;BME280;18905;42.668;23.364;2022-07-29T05:35:53;95203.91;;;26.42;80.76
28626;BME280;18905;42.668;23.364;2022-07-29T05:38:19;95208.59;;;26.15;81.35
28626;BME280;18905;42.668;23.364;2022-07-29T05:40:44;95198.88;;;26.00;83.69
28626;BME280;18905;42.668;23.364;2022-07-29T05:43:10;95206.75;;;26.05;85.05
28626;BME280;18905;42.668;23.364;2022-07-29T05:45:35;95223.53;;;26.21;81.77
28626;BME280;18905;42.668;23.364;2022-07-29T05:48:00;95212.00;;;25.92;81.49
28626;BME280;18905;42.668;23.364;2022-07-29T05:50:26;95193.47;;;25.49;84.46
28626;BME280;18905;42.668;23.364;2022-07-29T05:52:51;95224.09;;;25.68;85.60
28626;BME280;18905;42.668;23.364;2022-07-29T05:55:17;95242.78;;;25.57;88.27
28626;BME280;18905;42.668;23.364;2022-07-29T05:57:42;95229.28;;;25.63;87.22
28626;BME280;18905;42.668;23.364;2022-07-29T06:00:10;95235.41;;;25.81;85.50
28626;BME280;18905;42.668;23.364;2022-07-29T06:02:35;95216.25;;;25.63;84.86
28626;BME280;18905;42.668;23.364;2022-07-29T06:05:02;95252.06;;;25.77;87.44
28626;BME280;18905;42.668;23.364;2022-07-29T06:07:27;95248.56;;;25.29;89.77
28626;BME280;18905;42.668;23.364;2022-07-29T06:09:53;95206.50;;;25.89;87.24
28626;BME280;18905;42.668;23.364;2022-07-29T06:12:18;95183.16;;;25.93;82.85
28626;BME280;18905;42.668;23.364;2022-07-29T06:14:44;95245.00;;;25.69;87.18
28626;BME280;18905;42.668;23.364;2022-07-29T06:17:10;95217.59;;;25.85;86.80
28626;BME280;18905;42.668;23.364;2022-07-29T06:19:37;95247.00;;;26.73;83.26
28626;BME280;18905;42.668;23.364;2022-07-29T06:22:02;95196.91;;;26.90;79.42
28626;BME280;18905;42.668;23.364;2022-07-29T06:24:28;95196.97;;;27.36;75.57
28626;BME280;18905;42.668;23.364;2022-07-29T06:26:53;95235.25;;;27.68;75.10
28626;BME280;18905;42.668;23.364;2022-07-29T06:29:19;95249.72;;;28.02;73.95
28626;BME280;18905;42.668;23.364;2022-07-29T06:31:44;95193.44;;;27.09;74.65
28626;BME280;18905;42.668;23.364;2022-07-29T06:34:10;95248.50;;;27.34;77.70
28626;BME280;18905;42.668;23.364;2022-07-29T06:36:36;95222.59;;;27.67;76.18
28626;BME280;18905;42.668;23.364;2022-07-29T06:39:07;95204.38;;;27.66;74.52
28626;BME280;18905;42.668;23.364;2022-07-29T06:41:32;95212.66;;;28.12;73.67
28626;BME280;18905;42.668;23.364;2022-07-29T06:43:58;95209.88;;;28.31;71.03
28626;BME280;18905;42.668;23.364;2022-07-29T06:46:24;95238.16;;;29.01;65.98
28626;BME280;18905;42.668;23.364;2022-07-29T06:48:50;95238.16;;;29.01;65.28
28626;BME280;18905;42.668;23.364;2022-07-29T06:51:16;95226.66;;;28.05;68.25
28626;BME280;18905;42.668;23.364;2022-07-29T06:53:42;95218.59;;;27.68;71.49
28626;BME280;18905;42.668;23.364;2022-07-29T06:56:07;95204.59;;;27.98;68.83
28626;BME280;18905;42.668;23.364;2022-07-29T06:58:37;95211.31;;;28.39;66.48
28626;BME280;18905;42.668;23.364;2022-07-29T07:01:04;95193.38;;;28.44;65.55
28626;BME280;18905;42.668;23.364;2022-07-29T07:03:30;95197.00;;;28.41;66.94
28626;BME280;18905;42.668;23.364;2022-07-29T07:05:56;95236.13;;;29.21;63.19
28626;BME280;18905;42.668;23.364;2022-07-29T07:08:22;95179.06;;;28.46;63.79
28626;BME280;18905;42.668;23.364;2022-07-29T07:10:49;95202.19;;;28.19;65.79
28626;BME280;18905;42.668;23.364;2022-07-29T07:13:14;95168.91;;;27.54;69.62
28626;BME280;18905;42.668;23.364;2022-07-29T07:15:42;95186.44;;;27.70;69.39
28626;BME280;18905;42.668;23.364;2022-07-29T07:18:08;95209.53;;;28.49;66.16
28626;BME280;18905;42.668;23.364;2022-07-29T07:20:34;95203.44;;;28.15;65.66
28626;BME280;18905;42.668;23.364;2022-07-29T07:22:59;95148.06;;;27.46;66.63
28626;BME280;18905;42.668;23.364;2022-07-29T07:25:25;95221.38;;;27.68;68.01
28626;BME280;18905;42.668;23.364;2022-07-29T07:27:50;95204.63;;;27.52;67.25
28626;BME280;18905;42.668;23.364;2022-07-29T07:30:16;95181.47;;;27.62;67.52
28626;BME280;18905;42.668;23.364;2022-07-29T07:32:41;95222.53;;;28.32;64.89
28626;BME280;18905;42.668;23.364;2022-07-29T07:35:08;95218.06;;;27.99;65.76
28626;BME280;18905;42.668;23.364;2022-07-29T07:37:33;95199.69;;;28.05;65.79
28626;BME280;18905;42.668;23.364;2022-07-29T07:39:59;95210.38;;;28.46;64.24
28626;BME280;18905;42.668;23.364;2022-07-29T07:42:25;95165.38;;;28.55;61.62
28626;BME280;18905;42.668;23.364;2022-07-29T07:44:50;95156.66;;;28.33;62.78
28626;BME280;18905;42.668;23.364;2022-07-29T07:47:16;95164.03;;;28.04;63.63
28626;BME280;18905;42.668;23.364;2022-07-29T07:49:51;95209.44;;;27.71;66.14
28626;BME280;18905;42.668;23.364;2022-07-29T07:52:18;95172.91;;;28.34;64.41
28626;BME280;18905;42.668;23.364;2022-07-29T07:54:44;95161.38;;;29.07;60.63
28626;BME280;18905;42.668;23.364;2022-07-29T07:57:11;95204.00;;;28.65;60.75
28626;BME280;18905;42.668;23.364;2022-07-29T07:59:36;95177.97;;;28.20;62.56
28626;BME280;18905;42.668;23.364;2022-07-29T08:02:02;95204.59;;;28.57;61.91
28626;BME280;18905;42.668;23.364;2022-07-29T08:04:27;95210.00;;;28.05;62.56
28626;BME280;18905;42.668;23.364;2022-07-29T08:06:53;95184.31;;;27.81;63.50
28626;BME280;18905;42.668;23.364;2022-07-29T08:09:20;95201.88;;;28.14;61.17
28626;BME280;18905;42.668;23.364;2022-07-29T08:11:45;95217.63;;;28.20;61.06
28626;BME280;18905;42.668;23.364;2022-07-29T08:14:11;95214.53;;;28.15;61.38
28626;BME280;18905;42.668;23.364;2022-07-29T08:16:36;95187.50;;;28.19;60.89
28626;BME280;18905;42.668;23.364;2022-07-29T08:19:02;95207.44;;;28.73;59.39
28626;BME280;18905;42.668;23.364;2022-07-29T08:21:27;95203.00;;;29.27;55.50
28626;BME280;18905;42.668;23.364;2022-07-29T08:23:52;95194.13;;;28.25;58.54
28626;BME280;18905;42.668;23.364;2022-07-29T08:26:19;95162.31;;;28.65;57.99
28626;BME280;18905;42.668;23.364;2022-07-29T08:28:47;95201.47;;;28.55;58.29
28626;BME280;18905;42.668;23.364;2022-07-29T08:31:15;95186.22;;;29.14;55.97
28626;BME280;18905;42.668;23.364;2022-07-29T08:33:41;95141.63;;;28.50;55.43
28626;BME280;18905;42.668;23.364;2022-07-29T08:36:07;95159.91;;;28.12;57.97
28626;BME280;18905;42.668;23.364;2022-07-29T08:38:33;95151.38;;;28.58;57.33
28626;BME280;18905;42.668;23.364;2022-07-29T08:41:00;95201.59;;;29.03;55.60
28626;BME280;18905;42.668;23.364;2022-07-29T08:43:26;95194.59;;;28.79;52.95
28626;BME280;18905;42.668;23.364;2022-07-29T08:45:52;95195.47;;;28.92;52.71
28626;BME280;18905;42.668;23.364;2022-07-29T08:48:19;95177.00;;;29.33;50.94
28626;BME280;18905;42.668;23.364;2022-07-29T08:50:46;95086.63;;;28.77;49.96
28626;BME280;18905;42.668;23.364;2022-07-29T08:53:16;95199.53;;;29.71;48.44
28626;BME280;18905;42.668;23.364;2022-07-29T08:55:44;95118.38;;;29.12;49.74
28626;BME280;18905;42.668;23.364;2022-07-29T08:58:11;95123.25;;;29.52;48.11
28626;BME280;18905;42.668;23.364;2022-07-29T09:00:44;95109.31;;;29.56;46.80
28626;BME280;18905;42.668;23.364;2022-07-29T09:03:15;95147.59;;;29.80;47.21
28626;BME280;18905;42.668;23.364;2022-07-29T09:05:43;95160.78;;;30.05;46.47
28626;BME280;18905;42.668;23.364;2022-07-29T09:08:10;95154.78;;;30.35;45.39
28626;BME280;18905;42.668;23.364;2022-07-29T09:10:36;95115.41;;;29.03;46.81
28626;BME280;18905;42.668;23.364;2022-07-29T09:13:01;95145.75;;;29.13;47.50
28626;BME280;18905;42.668;23.364;2022-07-29T09:15:27;95147.13;;;29.05;48.42
28626;BME280;18905;42.668;23.364;2022-07-29T09:17:53;95130.09;;;28.52;49.45
28626;BME280;18905;42.668;23.364;2022-07-29T09:20:20;95147.25;;;28.82;50.60
28626;BME280;18905;42.668;23.364;2022-07-29T09:22:47;95173.41;;;28.85;49.77
28626;BME280;18905;42.668;23.364;2022-07-29T09:25:38;95164.03;;;28.95;50.21
28626;BME280;18905;42.668;23.364;2022-07-29T09:28:12;95161.91;;;29.18;49.83
28626;BME280;18905;42.668;23.364;2022-07-29T09:30:57;95186.56;;;29.32;48.99
28626;BME280;18905;42.668;23.364;2022-07-29T09:33:25;95179.53;;;30.04;46.84
28626;BME280;18905;42.668;23.364;2022-07-29T09:36:07;95157.97;;;30.62;46.06
28626;BME280;18905;42.668;23.364;2022-07-29T09:38:33;95175.75;;;30.93;46.19
28626;BME280;18905;42.668;23.364;2022-07-29T09:41:01;95153.94;;;30.50;46.32
28626;BME280;18905;42.668;23.364;2022-07-29T09:43:27;95074.31;;;30.24;46.40
28626;BME280;18905;42.668;23.364;2022-07-29T09:45:53;95174.28;;;31.13;45.87
28626;BME280;18905;42.668;23.364;2022-07-29T09:48:22;95175.75;;;31.43;43.69
28626;BME280;18905;42.668;23.364;2022-07-29T09:50:48;95147.06;;;31.05;42.34
28626;BME280;18905;42.668;23.364;2022-07-29T09:53:32;95168.34;;;30.20;44.66
28626;BME280;18905;42.668;23.364;2022-07-29T09:55:57;95154.09;;;30.84;45.73
28626;BME280;18905;42.668;23.364;2022-07-29T09:58:23;95139.69;;;30.98;45.27
28626;BME280;18905;42.668;23.364;2022-07-29T10:00:50;95123.03;;;30.32;46.20
28626;BME280;18905;42.668;23.364;2022-07-29T10:03:16;95110.72;;;30.71;46.16
28626;BME280;18905;42.668;23.364;2022-07-29T10:05:42;95148.25;;;30.66;45.56
28626;BME280;18905;42.668;23.364;2022-07-29T10:08:09;95144.09;;;30.46;46.31
28626;BME280;18905;42.668;23.364;2022-07-29T10:10:39;95146.41;;;29.49;46.97
28626;BME280;18905;42.668;23.364;2022-07-29T10:13:07;95138.25;;;29.87;46.60
28626;BME280;18905;42.668;23.364;2022-07-29T10:15:36;95129.81;;;29.90;46.46
28626;BME280;18905;42.668;23.364;2022-07-29T10:18:07;95055.16;;;29.44;46.11
28626;BME280;18905;42.668;23.364;2022-07-29T10:20:33;95123.75;;;29.79;47.00
28626;BME280;18905;42.668;23.364;2022-07-29T10:22:58;95115.28;;;29.54;46.76
28626;BME280;18905;42.668;23.364;2022-07-29T10:25:24;95090.03;;;29.90;43.37
28626;BME280;18905;42.668;23.364;2022-07-29T10:27:50;95108.56;;;30.37;44.25
28626;BME280;18905;42.668;23.364;2022-07-29T10:30:17;95072.34;;;30.62;43.29
28626;BME280;18905;42.668;23.364;2022-07-29T10:38:15;95121.78;;;31.92;42.75
28626;BME280;18905;42.668;23.364;2022-07-29T10:41:07;95109.56;;;31.99;39.17
28626;BME280;18905;42.668;23.364;2022-07-29T10:44:01;95090.59;;;31.72;39.80
28626;BME280;18905;42.668;23.364;2022-07-29T10:46:28;95088.25;;;32.14;40.82
28626;BME280;18905;42.668;23.364;2022-07-29T10:49:11;95098.97;;;32.15;40.82
28626;BME280;18905;42.668;23.364;2022-07-29T10:52:00;95103.88;;;31.68;39.97
28626;BME280;18905;42.668;23.364;2022-07-29T11:05:08;95085.41;;;32.05;39.65
28626;BME280;18905;42.668;23.364;2022-07-29T11:07:35;95087.31;;;32.29;40.14
28626;BME280;18905;42.668;23.364;2022-07-29T11:15:06;95080.66;;;32.36;39.43
28626;BME280;18905;42.668;23.364;2022-07-29T11:31:16;95023.06;;;32.78;39.24
28626;BME280;18905;42.668;23.364;2022-07-29T11:33:44;95029.53;;;32.57;38.58
28626;BME280;18905;42.668;23.364;2022-07-29T11:36:14;95060.13;;;32.08;39.34
28626;BME280;18905;42.668;23.364;2022-07-29T11:38:41;95072.75;;;31.91;40.12
28626;BME280;18905;42.668;23.364;2022-07-29T11:43:53;95041.09;;;31.51;40.17
28626;BME280;18905;42.668;23.364;2022-07-29T11:46:45;95065.50;;;32.24;39.67
28626;BME280;18905;42.668;23.364;2022-07-29T11:49:26;95064.69;;;32.36;37.91
28626;BME280;18905;42.668;23.364;2022-07-29T11:51:53;95055.63;;;32.63;38.59
28626;BME280;18905;42.668;23.364;2022-07-29T11:54:24;95043.53;;;32.66;37.29
28626;BME280;18905;42.668;23.364;2022-07-29T11:56:52;95016.28;;;32.18;38.20
28626;BME280;18905;42.668;23.364;2022-07-29T11:59:19;95023.78;;;32.60;38.03
28626;BME280;18905;42.668;23.364;2022-07-29T12:01:57;95052.69;;;32.66;38.21
28626;BME280;18905;42.668;23.364;2022-07-29T12:04:24;95048.66;;;33.16;36.98
28626;BME280;18905;42.668;23.364;2022-07-29T12:06:50;95001.84;;;32.89;37.05
28626;BME280;18905;42.668;23.364;2022-07-29T12:09:17;95037.19;;;32.74;37.94
28626;BME280;18905;42.668;23.364;2022-07-29T12:11:43;95020.03;;;32.54;37.99
28626;BME280;18905;42.668;23.364;2022-07-29T12:14:08;95039.09;;;32.77;38.32
28626;BME280;18905;42.668;23.364;2022-07-29T12:16:36;95051.25;;;32.92;38.06
28626;BME280;18905;42.668;23.364;2022-07-29T12:19:03;95015.78;;;32.80;38.45
28626;BME280;18905;42.668;23.364;2022-07-29T12:21:52;95008.53;;;32.52;38.15
28626;BME280;18905;42.668;23.364;2022-07-29T12:24:18;95025.19;;;33.13;37.43
28626;BME280;18905;42.668;23.364;2022-07-29T12:26:51;95041.69;;;33.29;37.08
28626;BME280;18905;42.668;23.364;2022-07-29T12:29:18;95026.69;;;33.81;37.56
28626;BME280;18905;42.668;23.364;2022-07-29T12:31:44;95002.53;;;33.74;35.99
28626;BME280;18905;42.668;23.364;2022-07-29T12:34:11;95039.16;;;33.13;36.62
28626;BME280;18905;42.668;23.364;2022-07-29T12:36:37;95035.28;;;33.20;36.71
28626;BME280;18905;42.668;23.364;2022-07-29T12:39:03;95029.28;;;33.30;36.49
28626;BME280;18905;42.668;23.364;2022-07-29T12:41:29;94967.53;;;32.89;36.19
28626;BME280;18905;42.668;23.364;2022-07-29T12:43:55;94982.09;;;32.93;36.20
28626;BME280;18905;42.668;23.364;2022-07-29T12:46:20;95010.59;;;33.09;36.04
28626;BME280;18905;42.668;23.364;2022-07-29T12:48:50;94988.47;;;32.84;36.55
28626;BME280;18905;42.668;23.364;2022-07-29T12:51:37;94958.34;;;33.06;36.02
28626;BME280;18905;42.668;23.364;2022-07-29T12:56:28;94918.41;;;32.88;35.79
28626;BME280;18905;42.668;23.364;2022-07-29T12:58:53;94932.78;;;32.50;37.14
28626;BME280;18905;42.668;23.364;2022-07-29T13:01:19;94914.41;;;32.40;37.44
28626;BME280;18905;42.668;23.364;2022-07-29T13:03:54;95008.72;;;33.15;36.60
28626;BME280;18905;42.668;23.364;2022-07-29T13:06:28;95004.69;;;32.59;37.38
28626;BME280;18905;42.668;23.364;2022-07-29T13:09:18;95005.59;;;32.56;37.58
28626;BME280;18905;42.668;23.364;2022-07-29T13:11:47;94989.53;;;32.38;37.99
28626;BME280;18905;42.668;23.364;2022-07-29T13:14:35;94967.03;;;32.42;37.91
28626;BME280;18905;42.668;23.364;2022-07-29T13:17:03;94995.50;;;32.58;37.69
28626;BME280;18905;42.668;23.364;2022-07-29T13:19:38;94987.56;;;32.96;37.64
28626;BME280;18905;42.668;23.364;2022-07-29T13:22:06;94991.78;;;33.10;37.15
28626;BME280;18905;42.668;23.364;2022-07-29T13:24:32;94970.69;;;33.36;36.57
28626;BME280;18905;42.668;23.364;2022-07-29T13:26:58;94998.50;;;33.66;36.11
28626;BME280;18905;42.668;23.364;2022-07-29T13:29:24;94961.50;;;33.44;36.25
28626;BME280;18905;42.668;23.364;2022-07-29T13:31:51;94888.59;;;32.85;37.15
28626;BME280;18905;42.668;23.364;2022-07-29T13:34:17;94982.63;;;33.45;36.98
28626;BME280;18905;42.668;23.364;2022-07-29T13:36:44;94953.84;;;33.18;37.15
28626;BME280;18905;42.668;23.364;2022-07-29T13:39:09;94961.13;;;32.79;37.14
28626;BME280;18905;42.668;23.364;2022-07-29T13:41:36;94959.88;;;32.89;37.21
28626;BME280;18905;42.668;23.364;2022-07-29T13:44:02;94943.13;;;33.16;36.10
28626;BME280;18905;42.668;23.364;2022-07-29T13:46:27;94928.97;;;33.20;36.17
28626;BME280;18905;42.668;23.364;2022-07-29T13:48:52;94947.97;;;33.34;36.85